Time;durP1;ratioP1;P1;durP2;ratioP2;P2;SDS_P1;SDS_P2;PMS_P1;PMS_P2;Temp;Humidity;BMP_temperature;BMP_pressure;BME280_temperature;BME280_humidity;BME280_pressure;Samples;Min_cycle;Max_cycle;Signal;HPM_P1;HPM_P2
2023/06/16 00:01:35;;;;;;;12.33;6.20;;;;;;;;;;5068152;28;20016;-63
2023/06/16 00:04:03;;;;;;;12.40;6.17;;;;;;;;;;5068640;28;20104;-62
2023/06/16 00:06:29;;;;;;;9.67;5.80;;;;;;;;;;5072146;28;20030;-62
2023/06/16 00:08:55;;;;;;;9.93;5.87;;;;;;;;;;5069739;28;20473;-62
2023/06/16 00:11:21;;;;;;;11.60;6.53;;;;;;;;;;5062732;28;20017;-62
2023/06/16 00:13:47;;;;;;;12.13;6.40;;;;;;;;;;5070411;28;20024;-63
2023/06/16 00:16:13;;;;;;;12.70;5.90;;;;;;;;;;5068932;28;20024;-63
2023/06/16 00:18:43;;;;;;;9.97;5.80;;;;;;;;;;5071489;28;20378;-62
2023/06/16 00:21:09;;;;;;;10.83;6.03;;;;;;;;;;5065502;28;20023;-62
2023/06/16 00:23:35;;;;;;;11.50;6.47;;;;;;;;;;5072311;28;20497;-62
2023/06/16 00:26:00;;;;;;;10.63;6.07;;;;;;;;;;5065965;28;20132;-62
2023/06/16 00:28:25;;;;;;;10.07;6.07;;;;;;;;;;5068838;28;20028;-62
2023/06/16 00:30:51;;;;;;;10.07;5.97;;;;;;;;;;5066521;28;20382;-62
2023/06/16 00:33:17;;;;;;;9.03;6.30;;;;;;;;;;5070522;28;20538;-62
2023/06/16 00:35:45;;;;;;;11.67;6.40;;;;;;;;;;5067318;28;20035;-62
2023/06/16 00:38:11;;;;;;;10.73;6.17;;;;;;;;;;5067451;28;20024;-62
2023/06/16 00:40:36;;;;;;;10.57;6.60;;;;;;;;;;5066378;28;20020;-63
2023/06/16 00:43:02;;;;;;;10.17;6.40;;;;;;;;;;5072701;28;20013;-62
2023/06/16 00:45:28;;;;;;;9.50;6.10;;;;;;;;;;5066083;28;20024;-62
2023/06/16 00:47:53;;;;;;;10.30;6.63;;;;;;;;;;5072012;28;20462;-63
2023/06/16 00:50:19;;;;;;;10.73;6.47;;;;;;;;;;5065811;28;20074;-62
2023/06/16 00:52:45;;;;;;;11.10;7.03;;;;;;;;;;5063788;28;20945;-62
2023/06/16 00:55:11;;;;;;;16.33;6.37;;;;;;;;;;5069416;28;20040;-62
2023/06/16 00:57:37;;;;;;;10.03;6.50;;;;;;;;;;5071566;28;20523;-62
2023/06/16 01:03:05;;;;;;;9.80;6.70;;;;;;;;;;5051133;28;20031;-62
2023/06/16 01:05:32;;;;;;;13.00;7.47;;;;;;;;;;5065778;28;20103;-61
2023/06/16 01:08:21;;;;;;;10.03;6.90;;;;;;;;;;5072600;28;20016;-62
2023/06/16 01:11:01;;;;;;;12.77;6.87;;;;;;;;;;5004242;28;20029;-62
2023/06/16 01:13:26;;;;;;;13.33;7.10;;;;;;;;;;5007667;28;20061;-62
2023/06/16 01:15:52;;;;;;;12.60;7.43;;;;;;;;;;5006204;28;20053;-62
2023/06/16 01:18:22;;;;;;;17.87;7.80;;;;;;;;;;5007477;28;20025;-62
2023/06/16 01:21:05;;;;;;;10.57;6.70;;;;;;;;;;5009349;28;20109;-62
2023/06/16 01:23:58;;;;;;;10.47;7.33;;;;;;;;;;5009871;28;20025;-62
2023/06/16 01:26:25;;;;;;;11.70;7.13;;;;;;;;;;5008775;28;20507;-62
2023/06/16 01:28:51;;;;;;;12.50;7.10;;;;;;;;;;5009039;28;20021;-62
2023/06/16 01:31:17;;;;;;;14.00;6.83;;;;;;;;;;5007958;28;20125;-62
2023/06/16 01:33:44;;;;;;;11.80;6.83;;;;;;;;;;5005077;28;20028;-62
2023/06/16 01:36:09;;;;;;;12.03;7.00;;;;;;;;;;5008853;28;20108;-62
2023/06/16 01:38:35;;;;;;;12.43;7.27;;;;;;;;;;5007702;28;20565;-62
2023/06/16 01:41:01;;;;;;;11.20;6.83;;;;;;;;;;5006062;28;20407;-62
2023/06/16 01:43:27;;;;;;;12.37;7.17;;;;;;;;;;5009424;28;20027;-62
2023/06/16 01:45:52;;;;;;;10.97;6.90;;;;;;;;;;5057558;28;20032;-62
2023/06/16 01:48:19;;;;;;;12.40;6.77;;;;;;;;;;5069808;28;20047;-62
2023/06/16 01:50:45;;;;;;;12.07;6.87;;;;;;;;;;5066520;28;20178;-62
2023/06/16 01:53:10;;;;;;;11.27;6.87;;;;;;;;;;5070583;28;20481;-62
2023/06/16 01:55:35;;;;;;;14.50;7.07;;;;;;;;;;5068797;28;20099;-62
2023/06/16 01:58:01;;;;;;;11.87;6.87;;;;;;;;;;5072129;28;20049;-62
2023/06/16 02:00:31;;;;;;;10.80;7.20;;;;;;;;;;5065398;28;20488;-62
2023/06/16 02:03:05;;;;;;;11.13;7.30;;;;;;;;;;5067532;28;20445;-62
2023/06/16 02:05:33;;;;;;;12.37;7.40;;;;;;;;;;5068041;28;20025;-62
2023/06/16 02:08:00;;;;;;;12.70;7.47;;;;;;;;;;5069980;28;20017;-62
2023/06/16 02:10:26;;;;;;;12.33;7.87;;;;;;;;;;5066333;28;20012;-62
2023/06/16 02:12:51;;;;;;;13.00;7.90;;;;;;;;;;5068743;28;20042;-62
2023/06/16 02:15:17;;;;;;;11.27;8.40;;;;;;;;;;5066482;28;20017;-62
2023/06/16 02:17:46;;;;;;;13.00;7.90;;;;;;;;;;5068998;28;20016;-61
2023/06/16 02:20:14;;;;;;;12.57;8.13;;;;;;;;;;5065627;28;20111;-61
2023/06/16 02:22:39;;;;;;;15.73;9.03;;;;;;;;;;5063699;28;20031;-62
2023/06/16 02:25:05;;;;;;;13.47;8.73;;;;;;;;;;5068915;28;20025;-62
2023/06/16 02:27:31;;;;;;;14.43;8.63;;;;;;;;;;5069995;28;20047;-62
2023/06/16 02:29:56;;;;;;;14.90;10.43;;;;;;;;;;5068160;28;20021;-62
2023/06/16 02:32:21;;;;;;;15.70;9.73;;;;;;;;;;5064851;28;20012;-62
2023/06/16 02:34:47;;;;;;;14.63;9.80;;;;;;;;;;5070242;28;20032;-61
2023/06/16 02:37:13;;;;;;;15.10;9.90;;;;;;;;;;5070083;28;20024;-62
2023/06/16 02:39:38;;;;;;;21.13;10.37;;;;;;;;;;5061841;28;20017;-62
2023/06/16 02:42:04;;;;;;;16.47;10.80;;;;;;;;;;5069644;28;20394;-62
2023/06/16 02:44:29;;;;;;;17.47;10.90;;;;;;;;;;5066473;28;20029;-62
2023/06/16 02:46:56;;;;;;;18.73;10.73;;;;;;;;;;5066115;28;20035;-62
2023/06/16 02:49:22;;;;;;;18.83;11.67;;;;;;;;;;5064165;28;20142;-62
2023/06/16 02:51:47;;;;;;;18.47;12.27;;;;;;;;;;5070239;28;20462;-62
2023/06/16 02:54:12;;;;;;;21.03;12.47;;;;;;;;;;5066721;28;20016;-62
2023/06/16 02:56:38;;;;;;;17.10;11.47;;;;;;;;;;5069711;28;20025;-62
2023/06/16 02:59:03;;;;;;;21.03;12.67;;;;;;;;;;5068729;28;20103;-62
2023/06/16 03:01:28;;;;;;;24.20;12.97;;;;;;;;;;5065880;28;20406;-62
2023/06/16 03:03:54;;;;;;;20.70;13.03;;;;;;;;;;5065082;28;20024;-63
2023/06/16 03:06:19;;;;;;;19.30;12.83;;;;;;;;;;5071417;28;20111;-62
2023/06/16 03:08:45;;;;;;;22.87;14.40;;;;;;;;;;5065629;28;20478;-62
2023/06/16 03:11:10;;;;;;;21.50;13.83;;;;;;;;;;5065311;28;20078;-62
2023/06/16 03:13:36;;;;;;;22.03;14.97;;;;;;;;;;5068029;28;20021;-62
2023/06/16 03:16:02;;;;;;;19.27;14.03;;;;;;;;;;5060601;28;20035;-62
2023/06/16 03:18:28;;;;;;;22.37;14.80;;;;;;;;;;5071005;28;20107;-62
2023/06/16 03:20:53;;;;;;;24.43;15.00;;;;;;;;;;5065657;28;20010;-63
2023/06/16 03:23:18;;;;;;;21.17;14.73;;;;;;;;;;5068439;28;20032;-62
2023/06/16 03:25:44;;;;;;;30.23;15.50;;;;;;;;;;5071251;28;20017;-62
2023/06/16 03:28:09;;;;;;;23.40;15.37;;;;;;;;;;5074704;28;20016;-62
2023/06/16 03:30:35;;;;;;;24.00;16.13;;;;;;;;;;5064908;28;20016;-62
2023/06/16 03:33:00;;;;;;;29.17;16.03;;;;;;;;;;5071747;28;20050;-62
2023/06/16 03:35:26;;;;;;;24.80;17.10;;;;;;;;;;5069328;28;20013;-62
2023/06/16 03:37:51;;;;;;;25.33;17.10;;;;;;;;;;5073685;28;20131;-62
2023/06/16 03:40:17;;;;;;;28.43;16.80;;;;;;;;;;5067668;28;20020;-63
2023/06/16 03:42:43;;;;;;;27.60;18.07;;;;;;;;;;5062902;28;20009;-62
2023/06/16 03:45:09;;;;;;;28.40;16.57;;;;;;;;;;5071239;28;20103;-62
2023/06/16 03:47:34;;;;;;;24.63;17.20;;;;;;;;;;5073227;28;20026;-62
2023/06/16 03:50:00;;;;;;;26.80;17.27;;;;;;;;;;5071620;28;20468;-62
2023/06/16 03:52:25;;;;;;;27.07;17.13;;;;;;;;;;5071096;28;20033;-62
2023/06/16 03:54:51;;;;;;;25.60;17.17;;;;;;;;;;5069908;28;20025;-63
2023/06/16 03:57:16;;;;;;;26.17;17.00;;;;;;;;;;5070862;28;20408;-63
2023/06/16 03:59:41;;;;;;;27.50;17.63;;;;;;;;;;5069529;28;20051;-62
2023/06/16 04:02:07;;;;;;;27.63;17.83;;;;;;;;;;5059622;28;20063;-62
2023/06/16 04:04:36;;;;;;;31.77;18.70;;;;;;;;;;5068394;28;20036;-62
2023/06/16 04:07:09;;;;;;;25.73;18.67;;;;;;;;;;5063791;28;20112;-63
2023/06/16 04:09:34;;;;;;;27.97;18.67;;;;;;;;;;5072579;28;20533;-62
2023/06/16 04:11:59;;;;;;;29.10;19.07;;;;;;;;;;5071338;28;20091;-62
2023/06/16 04:14:25;;;;;;;30.63;19.20;;;;;;;;;;5072887;28;20035;-62
2023/06/16 04:16:50;;;;;;;26.47;18.93;;;;;;;;;;5067091;28;20028;-62
2023/06/16 04:19:17;;;;;;;27.67;18.73;;;;;;;;;;5073153;28;20023;-62
2023/06/16 04:21:43;;;;;;;29.30;19.73;;;;;;;;;;5073811;28;20020;-62
2023/06/16 04:24:08;;;;;;;30.03;18.40;;;;;;;;;;5068643;28;20415;-63
2023/06/16 04:26:33;;;;;;;26.83;17.70;;;;;;;;;;5062314;28;20104;-62
2023/06/16 04:29:03;;;;;;;29.50;18.00;;;;;;;;;;5067256;28;20466;-62
2023/06/16 04:31:30;;;;;;;25.33;18.07;;;;;;;;;;5068024;28;20090;-63
2023/06/16 04:33:57;;;;;;;27.50;17.17;;;;;;;;;;5072591;28;20031;-63
2023/06/16 04:36:25;;;;;;;25.83;16.77;;;;;;;;;;5067073;28;20154;-63
2023/06/16 04:38:50;;;;;;;27.97;18.33;;;;;;;;;;5065078;28;20021;-63
2023/06/16 04:41:15;;;;;;;24.87;17.67;;;;;;;;;;5068068;28;20386;-62
2023/06/16 04:43:41;;;;;;;27.07;17.37;;;;;;;;;;5064444;28;20094;-62
2023/06/16 04:46:06;;;;;;;28.93;17.30;;;;;;;;;;5066192;28;20028;-63
2023/06/16 04:48:31;;;;;;;30.30;17.57;;;;;;;;;;5072983;28;20852;-63
2023/06/16 04:50:57;;;;;;;26.47;18.03;;;;;;;;;;5072829;28;20074;-63
2023/06/16 04:53:22;;;;;;;24.10;17.50;;;;;;;;;;5066398;28;20040;-63
2023/06/16 04:55:48;;;;;;;27.23;17.47;;;;;;;;;;5066947;28;20020;-63
2023/06/16 04:58:13;;;;;;;25.90;17.83;;;;;;;;;;5064904;28;20044;-63
2023/06/16 05:00:39;;;;;;;28.20;18.63;;;;;;;;;;5066617;28;20025;-63
2023/06/16 05:03:04;;;;;;;24.87;18.70;;;;;;;;;;5072871;28;20012;-63
2023/06/16 05:05:30;;;;;;;26.67;18.77;;;;;;;;;;5067244;28;20485;-63
2023/06/16 05:07:56;;;;;;;28.80;18.70;;;;;;;;;;5068103;28;20095;-63
2023/06/16 05:10:21;;;;;;;33.63;18.37;;;;;;;;;;5068995;28;20024;-63
2023/06/16 05:12:46;;;;;;;26.17;18.53;;;;;;;;;;5069711;28;20489;-63
2023/06/16 05:15:11;;;;;;;26.33;18.07;;;;;;;;;;5062172;28;20048;-63
2023/06/16 05:18:03;;;;;;;29.53;18.60;;;;;;;;;;5066320;28;20054;-69
2023/06/16 05:20:30;;;;;;;29.43;18.27;;;;;;;;;;5069421;28;20044;-63
2023/06/16 05:22:55;;;;;;;27.07;17.90;;;;;;;;;;5066829;28;20429;-63
2023/06/16 05:25:21;;;;;;;23.70;18.13;;;;;;;;;;5066442;28;20021;-63
2023/06/16 05:27:46;;;;;;;27.13;18.67;;;;;;;;;;5071727;28;20060;-63
2023/06/16 05:30:12;;;;;;;33.53;19.10;;;;;;;;;;5068366;28;20016;-63
2023/06/16 05:32:37;;;;;;;29.92;19.48;;;;;;;;;;5058373;28;20024;-63
2023/06/16 05:35:02;;;;;;;27.10;18.83;;;;;;;;;;5064700;28;20060;-63
2023/06/16 05:37:28;;;;;;;33.25;17.77;;;;;;;;;;5069723;28;20031;-63
2023/06/16 05:39:54;;;;;;;25.23;17.40;;;;;;;;;;5068724;28;20124;-64
2023/06/16 05:42:19;;;;;;;21.95;15.57;;;;;;;;;;5072185;28;20088;-64
2023/06/16 05:44:45;;;;;;;22.10;15.90;;;;;;;;;;5069396;28;20025;-64
2023/06/16 05:47:10;;;;;;;25.17;15.35;;;;;;;;;;5067306;28;20561;-64
2023/06/16 05:49:36;;;;;;;22.67;14.90;;;;;;;;;;5065556;28;20548;-65
2023/06/16 05:52:05;;;;;;;20.77;14.43;;;;;;;;;;5070316;28;20037;-65
2023/06/16 05:54:33;;;;;;;25.48;14.30;;;;;;;;;;5063679;28;20078;-65
2023/06/16 05:56:59;;;;;;;28.40;14.60;;;;;;;;;;5066049;28;20027;-65
2023/06/16 05:59:25;;;;;;;18.15;13.52;;;;;;;;;;5070353;28;20024;-65
2023/06/16 06:01:51;;;;;;;18.55;13.15;;;;;;;;;;5066508;28;20024;-65
2023/06/16 06:04:19;;;;;;;24.33;13.73;;;;;;;;;;5068514;28;20013;-65
2023/06/16 06:06:44;;;;;;;22.75;14.05;;;;;;;;;;5065017;28;20024;-65
2023/06/16 06:09:09;;;;;;;21.67;14.63;;;;;;;;;;5071992;28;20020;-64
2023/06/16 06:11:36;;;;;;;25.85;14.63;;;;;;;;;;5065539;28;20052;-65
2023/06/16 06:14:01;;;;;;;19.02;13.93;;;;;;;;;;5071506;28;20066;-65
2023/06/16 06:16:27;;;;;;;17.33;13.02;;;;;;;;;;5062475;28;20025;-65
2023/06/16 06:18:52;;;;;;;17.63;12.93;;;;;;;;;;5063772;28;20016;-64
2023/06/16 06:21:18;;;;;;;17.75;11.48;;;;;;;;;;5065773;28;20112;-64
2023/06/16 06:23:43;;;;;;;18.00;11.52;;;;;;;;;;5065682;28;20021;-64
2023/06/16 06:26:08;;;;;;;17.27;11.25;;;;;;;;;;5064953;28;20064;-65
2023/06/16 06:28:34;;;;;;;20.58;12.00;;;;;;;;;;5063763;28;20470;-64
2023/06/16 06:30:59;;;;;;;14.48;11.18;;;;;;;;;;5065995;28;20023;-65
2023/06/16 06:33:24;;;;;;;16.23;11.18;;;;;;;;;;5071416;28;20104;-64
2023/06/16 06:35:49;;;;;;;14.45;10.75;;;;;;;;;;5061877;28;20470;-64
2023/06/16 06:38:15;;;;;;;14.75;9.93;;;;;;;;;;5070441;28;20033;-63
2023/06/16 06:40:40;;;;;;;15.73;9.25;;;;;;;;;;5066578;28;20466;-63
2023/06/16 06:43:05;;;;;;;14.13;9.15;;;;;;;;;;5065327;28;20028;-63
2023/06/16 06:45:31;;;;;;;15.95;9.68;;;;;;;;;;5062649;28;20013;-63
2023/06/16 06:47:56;;;;;;;19.48;9.65;;;;;;;;;;5071197;28;20024;-63
2023/06/16 06:50:21;;;;;;;13.32;9.23;;;;;;;;;;5069433;28;20470;-62
2023/06/16 06:52:46;;;;;;;13.20;8.57;;;;;;;;;;5071175;28;20024;-62
2023/06/16 06:55:12;;;;;;;22.30;9.45;;;;;;;;;;5062541;28;20021;-62
2023/06/16 06:57:38;;;;;;;14.50;9.05;;;;;;;;;;5070243;28;20024;-61
2023/06/16 07:00:04;;;;;;;12.40;8.65;;;;;;;;;;5071639;28;20031;-61
2023/06/16 07:02:30;;;;;;;12.90;8.93;;;;;;;;;;5072816;28;20020;-62
2023/06/16 07:04:55;;;;;;;9.38;7.68;;;;;;;;;;5069107;28;20508;-63
2023/06/16 07:07:20;;;;;;;14.82;8.52;;;;;;;;;;5075075;28;20020;-62
2023/06/16 07:09:46;;;;;;;11.05;7.47;;;;;;;;;;5067268;28;20092;-62
2023/06/16 07:12:11;;;;;;;11.40;7.80;;;;;;;;;;5072801;28;20385;-62
2023/06/16 07:14:37;;;;;;;11.02;7.32;;;;;;;;;;5074171;28;20031;-63
2023/06/16 07:17:02;;;;;;;11.13;7.60;;;;;;;;;;5070946;28;20043;-63
2023/06/16 07:19:27;;;;;;;11.93;7.50;;;;;;;;;;5071580;28;20028;-63
2023/06/16 07:21:53;;;;;;;9.90;7.40;;;;;;;;;;5070854;28;20040;-62
2023/06/16 07:24:19;;;;;;;11.00;7.60;;;;;;;;;;5074399;28;20012;-62
2023/06/16 07:26:45;;;;;;;11.85;7.32;;;;;;;;;;5068283;28;20060;-62
2023/06/16 07:29:10;;;;;;;11.52;7.50;;;;;;;;;;5073684;28;20032;-63
2023/06/16 07:31:35;;;;;;;12.38;7.88;;;;;;;;;;5066341;28;20111;-63
2023/06/16 07:34:01;;;;;;;10.48;7.78;;;;;;;;;;5074200;28;20111;-63
2023/06/16 07:36:26;;;;;;;11.27;8.52;;;;;;;;;;5068929;28;20020;-63
2023/06/16 07:38:51;;;;;;;8.60;6.80;;;;;;;;;;5072715;28;20016;-63
2023/06/16 07:41:16;;;;;;;7.90;6.28;;;;;;;;;;5070091;28;20027;-63
2023/06/16 07:43:42;;;;;;;12.85;6.90;;;;;;;;;;5074448;28;20024;-63
2023/06/16 07:46:07;;;;;;;11.75;6.57;;;;;;;;;;5069196;28;20428;-64
2023/06/16 07:48:32;;;;;;;8.95;6.15;;;;;;;;;;5068225;28;20426;-63
2023/06/16 07:50:58;;;;;;;13.20;6.30;;;;;;;;;;5072791;28;20032;-64
2023/06/16 07:53:23;;;;;;;10.48;6.32;;;;;;;;;;5069129;28;20067;-64
2023/06/16 07:55:48;;;;;;;9.90;6.28;;;;;;;;;;5071114;28;20474;-64
2023/06/16 07:58:14;;;;;;;10.10;5.80;;;;;;;;;;5072504;28;20021;-64
2023/06/16 08:00:39;;;;;;;10.73;6.22;;;;;;;;;;5064829;28;20646;-64
2023/06/16 08:03:04;;;;;;;8.70;5.97;;;;;;;;;;5069284;28;20106;-64
2023/06/16 08:05:30;;;;;;;9.70;6.45;;;;;;;;;;5070329;28;20082;-64
2023/06/16 08:07:55;;;;;;;10.93;5.93;;;;;;;;;;5073754;28;20032;-65
2023/06/16 08:10:21;;;;;;;10.32;5.82;;;;;;;;;;5070770;28;20036;-65
2023/06/16 08:12:49;;;;;;;8.95;5.20;;;;;;;;;;5066276;28;20416;-66
2023/06/16 08:15:15;;;;;;;8.73;5.18;;;;;;;;;;5064530;28;20045;-66
2023/06/16 08:17:41;;;;;;;9.85;4.75;;;;;;;;;;5069687;28;20103;-67
2023/06/16 08:20:07;;;;;;;7.05;4.90;;;;;;;;;;5070331;28;20435;-66
2023/06/16 08:22:32;;;;;;;7.63;4.60;;;;;;;;;;5067758;28;20099;-67
2023/06/16 08:24:57;;;;;;;8.55;4.40;;;;;;;;;;5071495;28;20100;-66
2023/06/16 08:27:23;;;;;;;8.18;4.45;;;;;;;;;;5070357;28;20045;-67
2023/06/16 08:29:48;;;;;;;8.05;4.43;;;;;;;;;;5067532;28;20077;-66
2023/06/16 08:32:13;;;;;;;10.77;4.78;;;;;;;;;;5070763;28;20398;-66
2023/06/16 08:34:39;;;;;;;7.68;3.80;;;;;;;;;;5070799;28;20024;-65
2023/06/16 08:37:05;;;;;;;7.28;4.40;;;;;;;;;;5070987;28;20024;-66
2023/06/16 08:39:30;;;;;;;9.05;4.10;;;;;;;;;;5066837;28;20482;-66
2023/06/16 08:41:56;;;;;;;7.97;4.03;;;;;;;;;;5071912;28;20023;-67
2023/06/16 08:44:21;;;;;;;5.75;4.07;;;;;;;;;;5071331;28;20024;-67
2023/06/16 08:46:47;;;;;;;5.18;3.90;;;;;;;;;;5062603;28;20389;-67
2023/06/16 08:49:15;;;;;;;7.25;4.30;;;;;;;;;;5070185;28;20501;-69
2023/06/16 08:51:43;;;;;;;6.65;4.20;;;;;;;;;;5070178;28;20085;-69
2023/06/16 08:54:10;;;;;;;5.55;3.50;;;;;;;;;;5072949;28;20481;-68
2023/06/16 08:56:36;;;;;;;4.97;3.45;;;;;;;;;;5059095;28;20474;-68
2023/06/16 08:59:01;;;;;;;9.40;4.47;;;;;;;;;;5057549;28;20020;-68
2023/06/16 09:01:28;;;;;;;6.40;3.90;;;;;;;;;;5059124;28;20104;-69
2023/06/16 09:03:54;;;;;;;7.75;4.30;;;;;;;;;;5053369;28;20524;-70
2023/06/16 09:06:19;;;;;;;6.47;4.35;;;;;;;;;;5051675;28;20121;-68
2023/06/16 09:08:44;;;;;;;7.15;4.25;;;;;;;;;;5073205;28;20032;-68
2023/06/16 09:11:10;;;;;;;5.20;3.92;;;;;;;;;;5064132;28;20021;-68
2023/06/16 09:13:40;;;;;;;8.05;3.88;;;;;;;;;;5053169;28;20032;-68
2023/06/16 09:16:05;;;;;;;6.85;4.03;;;;;;;;;;5058090;28;20036;-68
2023/06/16 09:18:44;;;;;;;9.18;4.32;;;;;;;;;;5060720;28;20021;-69
2023/06/16 09:21:11;;;;;;;7.25;4.28;;;;;;;;;;5059387;28;20521;-68
2023/06/16 09:23:36;;;;;;;5.75;3.67;;;;;;;;;;5061788;28;20465;-68
2023/06/16 09:26:12;;;;;;;12.50;4.60;;;;;;;;;;5058340;28;20041;-69
2023/06/16 09:28:37;;;;;;;9.80;4.30;;;;;;;;;;5061993;28;20021;-69
2023/06/16 09:31:07;;;;;;;6.13;4.10;;;;;;;;;;5056383;28;20614;-69
2023/06/16 09:33:33;;;;;;;6.63;3.40;;;;;;;;;;5059919;28;20039;-68
2023/06/16 09:35:59;;;;;;;8.65;3.70;;;;;;;;;;5064766;28;20029;-68
2023/06/16 09:38:25;;;;;;;5.78;3.88;;;;;;;;;;5061452;28;20051;-68
2023/06/16 09:40:50;;;;;;;6.72;3.95;;;;;;;;;;5069432;28;20024;-68
2023/06/16 09:43:16;;;;;;;5.88;4.40;;;;;;;;;;5066978;28;20069;-68
2023/06/16 09:45:44;;;;;;;7.78;3.67;;;;;;;;;;5068423;28;20021;-68
2023/06/16 09:48:10;;;;;;;7.38;4.10;;;;;;;;;;5063247;28;20467;-68
2023/06/16 09:50:36;;;;;;;6.50;3.72;;;;;;;;;;5057064;28;20382;-67
2023/06/16 09:53:06;;;;;;;6.72;3.90;;;;;;;;;;5055151;28;20111;-68
2023/06/16 09:55:33;;;;;;;5.55;3.83;;;;;;;;;;5063941;28;20069;-68
2023/06/16 09:57:58;;;;;;;6.65;4.20;;;;;;;;;;5056162;28;20119;-68
2023/06/16 10:00:25;;;;;;;7.55;3.50;;;;;;;;;;5062979;28;20115;-68
2023/06/16 10:02:50;;;;;;;6.97;3.10;;;;;;;;;;5047831;28;20450;-68
2023/06/16 10:05:18;;;;;;;4.95;2.88;;;;;;;;;;5059108;28;20017;-69
2023/06/16 10:07:46;;;;;;;5.35;3.20;;;;;;;;;;5065246;28;20017;-69
2023/06/16 10:10:12;;;;;;;8.15;3.95;;;;;;;;;;5048838;28;20040;-68
2023/06/16 10:12:40;;;;;;;7.47;3.75;;;;;;;;;;5060957;28;20087;-68
2023/06/16 10:15:07;;;;;;;7.78;3.72;;;;;;;;;;5070629;28;20096;-67
2023/06/16 10:17:33;;;;;;;5.97;3.38;;;;;;;;;;5057241;28;20466;-68
2023/06/16 10:20:00;;;;;;;5.32;3.17;;;;;;;;;;5062267;28;20024;-67
2023/06/16 10:22:25;;;;;;;14.20;3.25;;;;;;;;;;5058345;28;20104;-67
2023/06/16 10:24:51;;;;;;;6.95;3.15;;;;;;;;;;5064040;28;20553;-68
2023/06/16 10:27:16;;;;;;;7.45;3.20;;;;;;;;;;5056875;28;20083;-68
2023/06/16 10:29:42;;;;;;;6.15;3.58;;;;;;;;;;5052867;28;20021;-67
2023/06/16 10:32:10;;;;;;;6.55;3.22;;;;;;;;;;5058701;28;20104;-67
2023/06/16 10:34:36;;;;;;;5.38;3.13;;;;;;;;;;5073685;28;20525;-68
2023/06/16 10:37:01;;;;;;;5.47;2.70;;;;;;;;;;5074123;28;20363;-67
2023/06/16 10:39:27;;;;;;;6.95;3.13;;;;;;;;;;5076597;28;20027;-67
2023/06/16 10:41:57;;;;;;;5.78;3.00;;;;;;;;;;5076683;28;20467;-67
2023/06/16 10:44:32;;;;;;;7.23;3.30;;;;;;;;;;5076736;28;20023;-67
2023/06/16 10:47:29;;;;;;;7.20;3.10;;;;;;;;;;5073167;28;20267;-67
2023/06/16 10:50:00;;;;;;;5.35;2.80;;;;;;;;;;5025799;28;20112;-66
2023/06/16 10:52:33;;;;;;;7.38;3.33;;;;;;;;;;5056496;28;20029;-67
2023/06/16 10:55:17;;;;;;;6.45;2.70;;;;;;;;;;5066692;28;20031;-66
2023/06/16 10:57:43;;;;;;;8.05;2.80;;;;;;;;;;5076105;28;20452;-66
2023/06/16 11:00:11;;;;;;;6.78;2.80;;;;;;;;;;5059210;28;20100;-66
2023/06/16 11:02:57;;;;;;;15.88;3.03;;;;;;;;;;5056784;28;20025;-67
2023/06/16 11:05:23;;;;;;;5.07;2.53;;;;;;;;;;5055832;28;20033;-66
2023/06/16 11:08:18;;;;;;;6.30;2.88;;;;;;;;;;5063809;28;20019;-67
2023/06/16 11:10:51;;;;;;;5.57;2.67;;;;;;;;;;5057343;28;20403;-66
2023/06/16 11:13:17;;;;;;;6.80;2.80;;;;;;;;;;5060908;28;20332;-66
2023/06/16 11:15:43;;;;;;;5.75;3.08;;;;;;;;;;5064339;28;20432;-65
2023/06/16 11:18:08;;;;;;;9.05;3.65;;;;;;;;;;5072095;28;20028;-66
2023/06/16 11:20:35;;;;;;;6.13;3.17;;;;;;;;;;5056683;28;20482;-66
2023/06/16 11:23:01;;;;;;;5.13;2.97;;;;;;;;;;5055950;28;20103;-65
2023/06/16 11:25:26;;;;;;;6.78;3.20;;;;;;;;;;5067065;28;20385;-66
2023/06/16 11:27:52;;;;;;;7.65;2.97;;;;;;;;;;5069290;28;20045;-65
2023/06/16 11:30:17;;;;;;;8.48;3.17;;;;;;;;;;5061183;28;20074;-66
2023/06/16 11:32:43;;;;;;;8.02;3.10;;;;;;;;;;5074720;28;20077;-65
2023/06/16 11:35:08;;;;;;;5.82;2.60;;;;;;;;;;5075628;28;20031;-66
2023/06/16 11:37:48;;;;;;;5.00;2.75;;;;;;;;;;5052890;28;20037;-65
2023/06/16 11:40:16;;;;;;;5.55;2.70;;;;;;;;;;5055850;28;20356;-65
2023/06/16 11:42:41;;;;;;;7.10;3.15;;;;;;;;;;5064042;28;20081;-65
2023/06/16 11:45:07;;;;;;;5.78;3.00;;;;;;;;;;5057105;28;20024;-65
2023/06/16 11:47:32;;;;;;;8.35;3.47;;;;;;;;;;5064749;28;20024;-65
2023/06/16 11:49:57;;;;;;;8.23;3.40;;;;;;;;;;5059458;28;20032;-65
2023/06/16 11:52:23;;;;;;;8.50;3.25;;;;;;;;;;5052413;28;20571;-65
2023/06/16 11:54:48;;;;;;;6.75;3.17;;;;;;;;;;5058148;28;20100;-65
2023/06/16 11:57:14;;;;;;;4.80;2.70;;;;;;;;;;5059294;28;20466;-65
2023/06/16 11:59:40;;;;;;;7.32;2.92;;;;;;;;;;5062859;28;20023;-65
2023/06/16 12:02:08;;;;;;;8.90;3.10;;;;;;;;;;5067185;28;20028;-64
2023/06/16 12:04:33;;;;;;;6.28;3.15;;;;;;;;;;5062267;28;20347;-64
2023/06/16 12:06:59;;;;;;;6.47;2.60;;;;;;;;;;5070592;28;20012;-64
2023/06/16 12:09:35;;;;;;;6.18;2.88;;;;;;;;;;5062420;28;20041;-64
2023/06/16 12:12:02;;;;;;;6.75;2.85;;;;;;;;;;5057092;28;20075;-65
2023/06/16 12:14:27;;;;;;;7.05;3.28;;;;;;;;;;5055482;28;20036;-64
2023/06/16 12:16:52;;;;;;;5.75;2.80;;;;;;;;;;5060095;28;20032;-64
2023/06/16 12:19:19;;;;;;;10.15;2.95;;;;;;;;;;5063317;28;20043;-66
2023/06/16 12:21:48;;;;;;;6.18;2.75;;;;;;;;;;5058106;28;20491;-64
2023/06/16 12:24:13;;;;;;;10.05;2.70;;;;;;;;;;5054790;28;20032;-64
2023/06/16 12:26:40;;;;;;;6.22;2.53;;;;;;;;;;5057741;28;20052;-65
2023/06/16 12:29:10;;;;;;;10.90;2.60;;;;;;;;;;5059128;28;20020;-63
2023/06/16 12:31:35;;;;;;;5.88;2.40;;;;;;;;;;5075056;28;20494;-65
2023/06/16 12:34:00;;;;;;;7.25;2.50;;;;;;;;;;5073669;28;20017;-64
2023/06/16 12:36:26;;;;;;;6.65;2.83;;;;;;;;;;5069713;28;20016;-64
2023/06/16 12:38:53;;;;;;;5.22;2.45;;;;;;;;;;5073176;28;20025;-64
2023/06/16 12:41:19;;;;;;;4.47;2.40;;;;;;;;;;5062457;28;20025;-63
2023/06/16 12:43:51;;;;;;;5.63;2.40;;;;;;;;;;5062804;28;20103;-63
2023/06/16 12:46:17;;;;;;;5.10;2.40;;;;;;;;;;5060847;28;20016;-64
2023/06/16 12:48:43;;;;;;;5.03;2.22;;;;;;;;;;5066275;28;20436;-63
2023/06/16 12:51:09;;;;;;;7.32;3.10;;;;;;;;;;5063214;28;20040;-63
2023/06/16 12:53:41;;;;;;;10.02;2.65;;;;;;;;;;5063489;28;20032;-64
2023/06/16 12:56:09;;;;;;;5.50;2.47;;;;;;;;;;5055936;28;20104;-63
2023/06/16 12:58:34;;;;;;;6.38;2.20;;;;;;;;;;5069680;28;20086;-63
2023/06/16 13:01:00;;;;;;;4.55;2.20;;;;;;;;;;5055048;28;20123;-63
2023/06/16 13:03:25;;;;;;;5.82;2.20;;;;;;;;;;5064706;28;20112;-64
2023/06/16 13:05:52;;;;;;;5.95;2.30;;;;;;;;;;5060460;28;20053;-63
2023/06/16 13:08:17;;;;;;;5.15;2.28;;;;;;;;;;5062485;28;20119;-64
2023/06/16 13:10:43;;;;;;;8.10;2.20;;;;;;;;;;5068020;28;20100;-64
2023/06/16 13:13:08;;;;;;;6.45;2.30;;;;;;;;;;5061396;28;20455;-63
2023/06/16 13:15:33;;;;;;;7.32;2.35;;;;;;;;;;5060945;28;20024;-63
2023/06/16 13:17:58;;;;;;;6.70;2.60;;;;;;;;;;5057359;28;20067;-64
2023/06/16 13:20:24;;;;;;;4.25;2.40;;;;;;;;;;5064779;28;20379;-63
2023/06/16 13:22:49;;;;;;;4.60;2.20;;;;;;;;;;5067056;28;20541;-63
2023/06/16 13:25:14;;;;;;;8.38;2.40;;;;;;;;;;5058356;28;20017;-64
2023/06/16 13:27:40;;;;;;;8.77;2.90;;;;;;;;;;5058633;28;20092;-63
2023/06/16 13:30:06;;;;;;;4.90;2.40;;;;;;;;;;5056606;28;20104;-64
2023/06/16 13:32:31;;;;;;;9.60;2.47;;;;;;;;;;5064730;28;20032;-64
2023/06/16 13:34:56;;;;;;;6.68;2.47;;;;;;;;;;5061917;28;20103;-63
2023/06/16 13:37:22;;;;;;;8.38;2.20;;;;;;;;;;5061315;28;20474;-63
2023/06/16 13:39:47;;;;;;;5.97;2.30;;;;;;;;;;5057884;28;20078;-63
2023/06/16 13:42:12;;;;;;;5.43;2.60;;;;;;;;;;5059130;28;20017;-63
2023/06/16 13:44:38;;;;;;;5.55;2.33;;;;;;;;;;5055273;28;20462;-63
2023/06/16 13:47:04;;;;;;;5.53;2.25;;;;;;;;;;5065056;28;20382;-63
2023/06/16 13:49:29;;;;;;;8.05;2.92;;;;;;;;;;5063269;28;20035;-63
2023/06/16 13:51:55;;;;;;;6.03;2.22;;;;;;;;;;5059120;28;20024;-63
2023/06/16 13:54:20;;;;;;;5.57;2.60;;;;;;;;;;5058775;28;20470;-63
2023/06/16 13:56:47;;;;;;;8.00;2.10;;;;;;;;;;5062167;28;20032;-63
2023/06/16 13:59:12;;;;;;;5.03;2.47;;;;;;;;;;5071930;28;20013;-63
2023/06/16 14:01:38;;;;;;;6.97;2.22;;;;;;;;;;5065915;28;20371;-62
2023/06/16 14:04:03;;;;;;;4.50;2.20;;;;;;;;;;5052710;28;20021;-62
2023/06/16 14:06:28;;;;;;;5.07;2.25;;;;;;;;;;5056744;28;20147;-63
2023/06/16 14:08:55;;;;;;;8.73;2.30;;;;;;;;;;5058717;28;20033;-63
2023/06/16 14:11:21;;;;;;;4.95;2.22;;;;;;;;;;5069105;28;20024;-62
2023/06/16 14:13:46;;;;;;;7.18;2.20;;;;;;;;;;5071325;28;20042;-63
2023/06/16 14:16:11;;;;;;;7.45;2.30;;;;;;;;;;5049754;28;20123;-64
2023/06/16 14:18:37;;;;;;;5.03;2.15;;;;;;;;;;5061936;28;20021;-63
2023/06/16 14:21:02;;;;;;;9.90;2.40;;;;;;;;;;5057580;28;20027;-63
2023/06/16 14:23:27;;;;;;;4.72;2.10;;;;;;;;;;5071018;28;20020;-63
2023/06/16 14:25:53;;;;;;;4.65;2.25;;;;;;;;;;5051081;28;20055;-63
2023/06/16 14:28:19;;;;;;;4.32;2.17;;;;;;;;;;5060250;28;20045;-63
2023/06/16 14:30:45;;;;;;;4.68;2.20;;;;;;;;;;5054240;28;20032;-63
2023/06/16 14:33:10;;;;;;;9.27;2.08;;;;;;;;;;5052989;28;20363;-63